Time;durP1;ratioP1;P1;durP2;ratioP2;P2;SDS_P1;SDS_P2;PMS_P1;PMS_P2;Temp;Humidity;BMP_temperature;BMP_pressure;BME280_temperature;BME280_humidity;BME280_pressure;Samples;Min_cycle;Max_cycle;Signal;HPM_P1;HPM_P2
2022/12/25 00:01:22;;;;;;;9.70;7.37;;;;;;;7.44;100.00;96663.66;5009972;28;103985;-67
2022/12/25 00:03:50;;;;;;;7.87;7.07;;;;;;;7.40;100.00;96673.06;5010151;28;105272;-67
2022/12/25 00:06:18;;;;;;;9.77;8.13;;;;;;;7.38;100.00;96672.50;5010621;28;101753;-67
2022/12/25 00:08:45;;;;;;;8.67;7.77;;;;;;;7.32;100.00;96668.88;5010700;28;103669;-66
2022/12/25 00:11:15;;;;;;;8.20;7.40;;;;;;;7.27;100.00;96674.06;5009759;28;105007;-67
2022/12/25 00:13:45;;;;;;;8.90;6.77;;;;;;;7.23;100.00;96678.19;5014203;28;101731;-67
2022/12/25 00:16:16;;;;;;;8.27;6.30;;;;;;;7.24;100.00;96671.03;5009507;28;104049;-67
2022/12/25 00:18:42;;;;;;;6.67;5.40;;;;;;;7.17;100.00;96678.25;5011002;28;101831;-67
2022/12/25 00:21:11;;;;;;;8.03;6.23;;;;;;;7.11;100.00;96679.16;5011316;28;102464;-67
2022/12/25 00:23:39;;;;;;;6.70;5.47;;;;;;;7.07;100.00;96678.78;5009742;28;105510;-67
2022/12/25 00:26:08;;;;;;;6.43;5.40;;;;;;;7.08;100.00;96675.09;5011535;28;101686;-67
2022/12/25 00:28:35;;;;;;;6.40;5.80;;;;;;;7.05;100.00;96674.75;5010856;28;102308;-67
2022/12/25 00:31:06;;;;;;;6.53;5.80;;;;;;;7.07;100.00;96659.44;5009457;28;104153;-67
2022/12/25 00:33:35;;;;;;;6.97;5.80;;;;;;;7.11;100.00;96668.56;5013941;28;101870;-67
2022/12/25 00:36:05;;;;;;;6.90;5.77;;;;;;;7.13;100.00;96661.22;5010290;28;104482;-67
2022/12/25 00:38:32;;;;;;;6.97;5.77;;;;;;;7.17;100.00;96654.44;5010533;28;101870;-67
2022/12/25 00:40:59;;;;;;;7.27;5.90;;;;;;;7.13;100.00;96647.97;5010167;28;105042;-67
2022/12/25 00:43:26;;;;;;;7.67;6.40;;;;;;;7.09;100.00;96638.91;5010840;28;102970;-67
2022/12/25 00:45:57;;;;;;;8.57;6.10;;;;;;;7.07;100.00;96643.59;5009389;28;102173;-67
2022/12/25 00:48:26;;;;;;;7.53;5.70;;;;;;;7.00;100.00;96635.75;5010277;28;103913;-66
2022/12/25 00:50:55;;;;;;;7.73;5.30;;;;;;;7.01;100.00;96641.84;5009349;28;105167;-66
2022/12/25 00:53:23;;;;;;;6.53;5.40;;;;;;;6.97;100.00;96652.03;5010009;28;101875;-66
2022/12/25 00:55:55;;;;;;;6.10;5.20;;;;;;;7.01;100.00;96647.94;5014727;28;101873;-66
2022/12/25 00:58:22;;;;;;;5.47;4.97;;;;;;;7.03;100.00;96645.88;5010410;28;102275;-66
2022/12/25 01:00:50;;;;;;;5.90;5.30;;;;;;;7.03;100.00;96642.44;5011903;28;102304;-67
2022/12/25 01:03:19;;;;;;;5.97;5.23;;;;;;;7.00;100.00;96651.63;5009598;28;104362;-67
2022/12/25 01:05:55;;;;;;;6.20;5.60;;;;;;;7.03;100.00;96647.72;5010868;28;101787;-67
2022/12/25 01:08:22;;;;;;;6.10;5.30;;;;;;;6.91;100.00;96652.94;5010342;28;102549;-67
2022/12/25 01:10:53;;;;;;;5.43;4.93;;;;;;;6.87;100.00;96657.03;5011156;28;102561;-67
2022/12/25 01:13:20;;;;;;;6.27;5.10;;;;;;;6.86;100.00;96657.25;5011814;28;101935;-67
2022/12/25 01:15:48;;;;;;;5.47;4.93;;;;;;;6.91;100.00;96657.41;5010639;28;102391;-67
2022/12/25 01:18:15;;;;;;;6.23;5.10;;;;;;;6.89;100.00;96657.66;5012469;28;102639;-67
2022/12/25 01:20:42;;;;;;;6.10;5.50;;;;;;;6.93;100.00;96669.38;5011683;28;102912;-67
2022/12/25 01:23:11;;;;;;;6.93;5.70;;;;;;;6.90;100.00;96661.91;5010918;28;102587;-66
2022/12/25 01:25:38;;;;;;;6.47;5.30;;;;;;;6.94;100.00;96662.25;5010080;28;101956;-67
2022/12/25 01:28:05;;;;;;;6.17;5.17;;;;;;;6.97;100.00;96653.88;5009420;28;102462;-67
2022/12/25 01:30:32;;;;;;;5.77;5.23;;;;;;;6.96;100.00;96652.25;5010501;28;102480;-67
2022/12/25 01:32:59;;;;;;;6.37;5.10;;;;;;;7.00;100.00;96658.72;5009414;28;102368;-67
2022/12/25 01:35:26;;;;;;;7.13;5.13;;;;;;;7.01;100.00;96655.06;5009667;28;101786;-67
2022/12/25 01:37:54;;;;;;;5.23;4.73;;;;;;;7.00;100.00;96646.31;5008827;28;105009;-67
2022/12/25 01:40:22;;;;;;;5.33;4.83;;;;;;;7.00;100.00;96651.63;5012721;28;101888;-66
2022/12/25 01:42:49;;;;;;;6.10;5.40;;;;;;;7.00;100.00;96643.69;5009711;28;103947;-66
2022/12/25 01:45:32;;;;;;;6.37;5.53;;;;;;;7.02;100.00;96644.25;5010082;28;101874;-66
2022/12/25 01:48:02;;;;;;;5.40;4.77;;;;;;;7.05;100.00;96637.72;5009912;28;105419;-66
2022/12/25 01:50:29;;;;;;;5.20;4.70;;;;;;;7.05;100.00;96637.72;5009401;28;105797;-66
2022/12/25 01:52:59;;;;;;;6.50;5.23;;;;;;;6.93;100.00;96627.06;5009507;28;102600;-66
2022/12/25 01:55:28;;;;;;;5.40;4.90;;;;;;;6.85;100.00;96616.81;5008865;28;105804;-67
2022/12/25 01:57:55;;;;;;;6.97;5.40;;;;;;;6.84;100.00;96614.38;5008172;28;105520;-66
2022/12/25 02:00:22;;;;;;;6.17;5.60;;;;;;;6.82;100.00;96611.16;5010384;28;101812;-66
2022/12/25 02:02:51;;;;;;;7.13;5.37;;;;;;;6.71;100.00;96604.75;5012549;28;102539;-67
2022/12/25 02:05:23;;;;;;;5.63;5.10;;;;;;;6.75;100.00;96605.94;5010068;28;102291;-67
2022/12/25 02:07:51;;;;;;;6.87;5.60;;;;;;;6.76;100.00;96594.34;5010750;28;102744;-67
2022/12/25 02:10:18;;;;;;;7.13;5.50;;;;;;;6.80;100.00;96597.34;5007697;28;105315;-67
2022/12/25 02:12:48;;;;;;;6.60;5.80;;;;;;;6.76;100.00;96601.47;5008462;28;101953;-67
2022/12/25 02:15:19;;;;;;;5.13;4.63;;;;;;;6.79;100.00;96598.38;5008258;28;104878;-67
2022/12/25 02:18:11;;;;;;;6.03;4.60;;;;;;;6.93;100.00;96586.63;5007928;28;105029;-67
2022/12/25 02:20:51;;;;;;;5.07;4.57;;;;;;;6.98;100.00;96594.72;5008341;28;101780;-67
2022/12/25 02:24:01;;;;;;;5.67;5.17;;;;;;;7.10;100.00;96587.63;5007922;28;105172;-67
2022/12/25 02:26:48;;;;;;;4.80;4.30;;;;;;;7.18;100.00;96589.94;4933481;28;101927;-67
2022/12/25 02:29:23;;;;;;;5.70;4.10;;;;;;;7.20;100.00;96588.69;5006603;28;105339;-67
2022/12/25 02:31:58;;;;;;;5.00;4.50;;;;;;;7.19;100.00;96586.28;5007551;28;105210;-67
2022/12/25 02:34:33;;;;;;;5.13;4.33;;;;;;;7.19;100.00;96588.94;5007778;28;101833;-67
2022/12/25 02:37:07;;;;;;;4.30;4.00;;;;;;;7.16;100.00;96582.25;5010523;28;103971;-66
2022/12/25 02:39:58;;;;;;;5.23;4.73;;;;;;;7.15;100.00;96580.63;5010507;28;104055;-66
2022/12/25 03:07:47;;;;;;;6.17;5.67;;;;;;;6.97;100.00;96561.34;5010969;28;105169;-66
2022/12/25 03:13:06;;;;;;;6.80;5.70;;;;;;;6.84;100.00;96572.91;5014100;28;101834;-66
2022/12/25 03:18:25;;;;;;;6.10;5.60;;;;;;;6.58;100.00;96570.56;5010871;28;102049;-66
2022/12/25 03:31:10;;;;;;;6.90;6.23;;;;;;;6.76;100.00;96570.56;5009711;28;105183;-66
2022/12/25 03:32:08;;;;;;;7.93;7.23;;;;;;;6.79;100.00;96579.88;5010815;28;102956;-67
2022/12/25 04:36:14;;;;;;;7.93;7.23;;;;;;;7.00;100.00;96590.00;5010767;28;102539;-66
2022/12/25 04:38:41;;;;;;;7.27;6.63;;;;;;;7.09;100.00;96586.81;5009945;28;102952;-67
2022/12/25 04:41:12;;;;;;;7.80;7.03;;;;;;;7.06;100.00;96581.16;5010760;28;101820;-67
2022/12/25 04:43:40;;;;;;;7.70;6.70;;;;;;;7.09;100.00;96580.72;5010789;28;102383;-67
2022/12/25 04:46:07;;;;;;;7.30;6.60;;;;;;;7.16;100.00;96573.50;5009849;28;102079;-67
2022/12/25 04:48:36;;;;;;;7.23;6.53;;;;;;;7.16;100.00;96579.63;5012609;28;101912;-66
2022/12/25 04:51:17;;;;;;;7.20;6.50;;;;;;;7.12;100.00;96581.09;5009746;28;102534;-67
2022/12/25 04:53:44;;;;;;;7.17;6.53;;;;;;;7.05;100.00;96582.19;5010535;28;102157;-67
2022/12/25 04:56:13;;;;;;;7.00;6.03;;;;;;;7.10;100.00;96572.53;5010471;28;102950;-66
2022/12/25 04:58:41;;;;;;;7.13;6.43;;;;;;;7.06;100.00;96578.53;5009125;28;102797;-66
2022/12/25 05:01:08;;;;;;;6.53;5.93;;;;;;;6.93;100.00;96586.63;5008700;28;101844;-66
2022/12/25 05:03:36;;;;;;;7.00;6.30;;;;;;;6.99;100.00;96577.81;5010378;28;102293;-66
2022/12/25 05:06:05;;;;;;;6.57;5.93;;;;;;;7.02;100.00;96572.88;5008250;28;104096;-66
2022/12/25 05:08:33;;;;;;;6.80;6.20;;;;;;;7.07;100.00;96572.19;5008832;28;101960;-66
2022/12/25 05:11:06;;;;;;;6.93;6.23;;;;;;;7.04;100.00;96577.94;5011344;28;105505;-66
2022/12/25 05:13:35;;;;;;;7.40;6.17;;;;;;;6.97;100.00;96572.72;5010193;28;101859;-67
2022/12/25 05:16:05;;;;;;;7.23;6.50;;;;;;;6.98;100.00;96570.91;5008634;28;103450;-66
2022/12/25 05:18:32;;;;;;;7.53;6.00;;;;;;;7.01;100.00;96562.50;5008116;28;104372;-66
2022/12/25 05:21:00;;;;;;;6.37;5.77;;;;;;;7.00;100.00;96567.00;5008842;28;102293;-66
2022/12/25 05:23:27;;;;;;;6.47;5.87;;;;;;;7.04;100.00;96567.38;4991984;28;104039;-66
2022/12/25 05:25:54;;;;;;;6.10;5.50;;;;;;;7.05;100.00;96563.69;5007963;28;105076;-66
2022/12/25 05:28:21;;;;;;;6.73;6.10;;;;;;;7.01;100.00;96558.03;5008035;28;101911;-66
2022/12/25 05:30:49;;;;;;;7.17;5.87;;;;;;;7.04;100.00;96560.22;5008471;28;104988;-66
2022/12/25 05:33:17;;;;;;;6.40;5.80;;;;;;;7.10;100.00;96569.13;5011100;28;104092;-66
2022/12/25 05:35:44;;;;;;;6.60;6.00;;;;;;;7.06;100.00;96560.81;5009889;28;102311;-66
2022/12/25 05:38:11;;;;;;;6.43;5.87;;;;;;;7.04;100.00;96562.09;5007837;28;105190;-66
2022/12/25 05:40:40;;;;;;;5.83;5.30;;;;;;;6.91;100.00;96551.66;5008542;28;101901;-66
2022/12/25 05:43:07;;;;;;;6.13;5.53;;;;;;;6.90;100.00;96555.34;5009824;28;102530;-66
2022/12/25 05:45:35;;;;;;;6.27;5.47;;;;;;;6.91;100.00;96568.34;5008074;28;105622;-66
2022/12/25 05:48:05;;;;;;;6.17;5.60;;;;;;;6.95;100.00;96568.69;5009402;28;101774;-66
2022/12/25 05:50:32;;;;;;;6.27;5.67;;;;;;;6.99;100.00;96561.94;5008620;28;103912;-66
2022/12/25 05:53:05;;;;;;;6.60;5.90;;;;;;;6.97;100.00;96561.34;5007491;28;105638;-66
2022/12/25 05:55:33;;;;;;;5.77;5.27;;;;;;;6.97;100.00;96569.28;5013261;28;101744;-66
2022/12/25 05:58:00;;;;;;;6.50;5.83;;;;;;;6.97;100.00;96566.63;5007786;28;105478;-66
2022/12/25 06:00:28;;;;;;;6.10;5.50;;;;;;;6.94;100.00;96561.81;5008122;28;101811;-66
2022/12/25 06:02:55;;;;;;;6.30;5.70;;;;;;;6.96;100.00;96559.72;5009213;28;102914;-66
2022/12/25 06:05:24;;;;;;;6.00;5.40;;;;;;;6.92;100.00;96556.72;5009070;28;102527;-66
2022/12/25 06:07:51;;;;;;;6.00;5.50;;;;;;;6.92;100.00;96554.09;5008114;28;101889;-66
2022/12/25 06:10:18;;;;;;;5.73;5.23;;;;;;;6.89;100.00;96549.25;4991655;28;105613;-66
2022/12/25 06:12:46;;;;;;;5.97;5.47;;;;;;;6.84;100.00;96556.22;5010844;28;105031;-66
2022/12/25 06:15:13;;;;;;;5.97;5.40;;;;;;;6.81;100.00;96567.28;5012823;28;101745;-66
2022/12/25 06:17:40;;;;;;;5.77;5.27;;;;;;;6.74;100.00;96561.22;5015578;28;102557;-66
2022/12/25 06:20:08;;;;;;;5.70;5.20;;;;;;;6.71;100.00;96545.84;5012825;28;101791;-66
2022/12/25 06:22:37;;;;;;;5.17;4.73;;;;;;;6.66;100.00;96543.06;5012783;28;102523;-66
2022/12/25 06:25:04;;;;;;;6.43;5.90;;;;;;;6.65;100.00;96552.81;5010716;28;104835;-66
2022/12/25 06:27:31;;;;;;;6.90;6.30;;;;;;;6.63;100.00;96560.16;5002325;28;101917;-66
2022/12/25 06:29:58;;;;;;;9.50;8.43;;;;;;;6.56;100.00;96574.47;4991257;28;105117;-66
2022/12/25 06:32:26;;;;;;;6.80;6.20;;;;;;;6.41;100.00;96572.19;4990397;28;105347;-66
2022/12/25 06:34:53;;;;;;;7.80;6.63;;;;;;;6.49;100.00;96571.09;4991041;28;101848;-66
2022/12/25 06:37:20;;;;;;;8.50;6.60;;;;;;;6.45;100.00;96567.28;4991333;28;105099;-66
2022/12/25 06:39:48;;;;;;;7.40;6.60;;;;;;;6.48;100.00;96572.09;4994086;28;105438;-66
2022/12/25 06:42:16;;;;;;;6.80;6.20;;;;;;;6.49;100.00;96558.69;4991144;28;105114;-66
2022/12/25 06:44:44;;;;;;;6.47;5.77;;;;;;;6.46;100.00;96556.50;4990358;28;104228;-66
2022/12/25 06:47:12;;;;;;;6.37;5.77;;;;;;;6.46;100.00;96555.69;4991133;28;102521;-66
2022/12/25 06:49:39;;;;;;;5.93;5.43;;;;;;;6.44;100.00;96565.66;4991054;28;105640;-66
2022/12/25 06:52:07;;;;;;;6.63;6.07;;;;;;;6.46;100.00;96558.31;4990266;28;105185;-66
2022/12/25 06:54:34;;;;;;;6.47;5.87;;;;;;;6.37;100.00;96555.16;4992182;28;101767;-66
2022/12/25 06:57:02;;;;;;;6.50;5.87;;;;;;;6.40;100.00;96557.38;4990815;28;105303;-66
2022/12/25 06:59:30;;;;;;;6.30;5.70;;;;;;;6.39;100.00;96547.81;4993799;28;104616;-66
2022/12/25 07:01:58;;;;;;;7.07;6.03;;;;;;;6.36;100.00;96556.19;4990971;28;104812;-66
2022/12/25 07:04:30;;;;;;;6.30;5.80;;;;;;;6.41;100.00;96560.81;4990008;28;105659;-66
2022/12/25 07:06:57;;;;;;;7.33;6.33;;;;;;;6.45;100.00;96564.63;4990852;28;101977;-66
2022/12/25 07:09:24;;;;;;;7.10;6.40;;;;;;;6.36;100.00;96568.59;4990589;28;105059;-66
2022/12/25 07:11:53;;;;;;;6.60;6.00;;;;;;;6.39;100.00;96568.16;4989931;28;105872;-66
2022/12/25 07:14:23;;;;;;;7.73;7.03;;;;;;;6.36;100.00;96573.88;4990549;28;102010;-66
2022/12/25 07:16:49;;;;;;;7.10;6.40;;;;;;;6.38;100.00;96569.19;4990540;28;105175;-66
2022/12/25 07:19:18;;;;;;;8.17;7.37;;;;;;;6.45;100.00;96572.56;4990059;28;104671;-66
2022/12/25 07:21:45;;;;;;;7.97;7.20;;;;;;;6.53;100.00;96577.53;4993680;28;101736;-66
2022/12/25 07:24:11;;;;;;;8.43;6.90;;;;;;;6.45;100.00;96575.19;4989653;28;105304;-66
2022/12/25 07:26:38;;;;;;;7.63;6.93;;;;;;;6.46;100.00;96577.63;4991780;28;101794;-66
2022/12/25 07:29:05;;;;;;;7.47;6.70;;;;;;;6.49;100.00;96577.16;4990070;28;104927;-66
2022/12/25 07:31:33;;;;;;;7.83;6.83;;;;;;;6.54;100.00;96568.59;4989555;28;105301;-66
2022/12/25 07:34:01;;;;;;;7.90;7.10;;;;;;;6.45;100.00;96572.56;4990250;28;102154;-66
2022/12/25 07:36:29;;;;;;;6.77;6.17;;;;;;;6.50;100.00;96581.44;4990348;28;105332;-66
2022/12/25 07:38:56;;;;;;;7.03;6.43;;;;;;;6.54;100.00;96579.19;4989522;28;105613;-66
2022/12/25 07:41:24;;;;;;;6.07;5.57;;;;;;;6.66;100.00;96585.34;4990321;28;102019;-66
2022/12/25 07:43:56;;;;;;;6.53;5.93;;;;;;;6.75;100.00;96581.34;4992712;28;103853;-66
2022/12/25 07:46:23;;;;;;;5.67;5.17;;;;;;;6.80;100.00;96569.09;4990114;28;101772;-66
2022/12/25 07:48:51;;;;;;;6.80;6.20;;;;;;;6.79;100.00;96574.59;4990350;28;103978;-67
2022/12/25 07:51:18;;;;;;;6.43;5.70;;;;;;;6.77;100.00;96566.09;4989554;28;102941;-66
2022/12/25 07:53:46;;;;;;;7.03;6.33;;;;;;;6.79;100.00;96572.78;4991120;28;102152;-66
2022/12/25 07:56:15;;;;;;;6.73;6.13;;;;;;;6.78;100.00;96570.34;4991532;28;102292;-66
2022/12/25 07:58:42;;;;;;;7.43;6.20;;;;;;;6.82;100.00;96563.59;4989227;28;105486;-66
2022/12/25 08:01:12;;;;;;;6.60;6.00;;;;;;;6.86;100.00;96568.19;4989854;28;101924;-66
2022/12/25 08:03:39;;;;;;;7.60;6.20;;;;;;;6.93;100.00;96574.19;4989720;28;105305;-66
2022/12/25 08:06:10;;;;;;;7.47;5.90;;;;;;;7.06;100.00;96565.31;4994280;28;102479;-66
2022/12/25 08:08:38;;;;;;;6.20;5.70;;;;;;;7.04;100.00;96568.16;4989632;28;104899;-66
2022/12/25 08:11:07;;;;;;;5.93;5.40;;;;;;;7.06;100.00;96568.75;4989153;28;103793;-66
2022/12/25 08:13:36;;;;;;;5.87;5.27;;;;;;;7.09;100.00;96560.38;4989449;28;101943;-66
2022/12/25 08:16:06;;;;;;;5.90;5.40;;;;;;;7.12;100.00;96570.50;4989313;28;104893;-66
2022/12/25 08:18:33;;;;;;;6.33;5.70;;;;;;;7.15;100.00;96563.97;4990513;28;102736;-66
2022/12/25 08:21:02;;;;;;;7.80;6.60;;;;;;;7.20;100.00;96564.09;4991045;28;101798;-67
2022/12/25 08:23:33;;;;;;;8.73;7.03;;;;;;;7.32;100.00;96565.72;4990733;28;103056;-65
2022/12/25 08:26:01;;;;;;;9.97;8.50;;;;;;;7.44;100.00;96565.78;4990382;28;103210;-66
2022/12/25 08:28:30;;;;;;;11.67;9.13;;;;;;;7.61;100.00;96566.72;4993413;28;101995;-66
2022/12/25 08:30:57;;;;;;;15.60;10.70;;;;;;;7.75;100.00;96560.22;4990054;28;102660;-72
2022/12/25 08:33:24;;;;;;;25.17;13.40;;;;;;;7.87;100.00;96555.72;4989122;28;102443;-64
2022/12/25 08:35:51;;;;;;;24.13;12.13;;;;;;;7.97;100.00;96564.69;4988538;28;102727;-64
2022/12/25 08:38:18;;;;;;;7.63;6.80;;;;;;;7.96;100.00;96557.78;4987792;28;105508;-65
2022/12/25 08:40:47;;;;;;;7.30;6.20;;;;;;;8.04;100.00;96554.81;4989100;28;101896;-65
2022/12/25 08:43:14;;;;;;;8.30;7.17;;;;;;;8.27;100.00;96554.03;4989451;28;105238;-65
2022/12/25 08:45:42;;;;;;;11.00;8.83;;;;;;;8.44;100.00;96557.56;4988755;28;104069;-65
2022/12/25 08:48:09;;;;;;;19.03;13.93;;;;;;;8.59;100.00;96547.28;4990688;28;102297;-64
2022/12/25 08:50:36;;;;;;;13.53;10.83;;;;;;;8.67;100.00;96539.00;4990901;28;105091;-66
2022/12/25 08:53:04;;;;;;;6.83;6.17;;;;;;;8.83;100.00;96543.56;4988173;28;101880;-65
2022/12/25 08:55:31;;;;;;;5.43;5.00;;;;;;;8.99;100.00;96533.00;4989071;28;104387;-65
2022/12/25 08:57:59;;;;;;;5.87;5.27;;;;;;;9.00;100.00;96531.16;4990105;28;102779;-65
2022/12/25 09:00:26;;;;;;;5.50;5.00;;;;;;;9.15;100.00;96537.53;4989112;28;102765;-66
2022/12/25 09:02:53;;;;;;;5.13;4.53;;;;;;;9.12;100.00;96531.91;4988897;28;104398;-64
2022/12/25 09:05:20;;;;;;;4.70;4.27;;;;;;;9.34;100.00;96530.19;4988426;28;105293;-64
2022/12/25 09:07:47;;;;;;;5.20;4.70;;;;;;;9.46;100.00;96537.06;4989001;28;101948;-65
2022/12/25 09:10:15;;;;;;;5.77;5.17;;;;;;;9.68;100.00;96534.47;4991694;28;104754;-65
2022/12/25 09:12:42;;;;;;;4.97;4.47;;;;;;;9.73;100.00;96524.75;4990316;28;102119;-64
2022/12/25 09:15:11;;;;;;;4.90;4.40;;;;;;;9.77;100.00;96523.22;4988561;28;105586;-66
2022/12/25 09:17:38;;;;;;;7.37;6.67;;;;;;;9.73;100.00;96522.09;4988031;28;105479;-65
2022/12/25 09:20:06;;;;;;;6.73;6.00;;;;;;;9.70;100.00;96527.09;4990104;28;101808;-64
2022/12/25 09:22:34;;;;;;;8.60;6.13;;;;;;;9.57;100.00;96517.59;4989925;28;102657;-64
2022/12/25 09:25:01;;;;;;;6.83;5.90;;;;;;;9.67;100.00;96516.94;4988164;28;105610;-64
2022/12/25 09:27:28;;;;;;;6.70;5.77;;;;;;;9.70;100.00;96519.13;4989496;28;101851;-65
2022/12/25 09:29:54;;;;;;;5.87;5.30;;;;;;;9.80;100.00;96513.97;4990027;28;102513;-65
2022/12/25 09:32:23;;;;;;;6.20;5.60;;;;;;;9.76;100.00;96513.63;4991549;28;104314;-65
2022/12/25 09:34:51;;;;;;;5.73;4.97;;;;;;;9.78;100.00;96510.75;4990065;28;102600;-65
2022/12/25 09:37:18;;;;;;;7.23;6.00;;;;;;;9.75;100.00;96508.59;4987879;28;103870;-65
2022/12/25 09:39:44;;;;;;;6.10;5.23;;;;;;;9.73;100.00;96497.41;4988387;28;101828;-65
2022/12/25 09:42:18;;;;;;;6.77;5.20;;;;;;;9.86;100.00;96502.41;4988385;28;105212;-65
2022/12/25 09:44:50;;;;;;;7.00;4.93;;;;;;;9.95;100.00;96495.59;4988727;28;105523;-65
2022/12/25 09:47:22;;;;;;;6.57;5.93;;;;;;;10.09;100.00;96494.25;4992319;28;101822;-65
2022/12/25 09:49:56;;;;;;;7.00;5.60;;;;;;;10.20;100.00;96493.34;4992134;28;105036;-65
2022/12/25 09:52:28;;;;;;;6.63;6.03;;;;;;;10.30;100.00;96498.81;4991274;28;105173;-65
2022/12/25 09:55:00;;;;;;;5.17;4.67;;;;;;;10.34;100.00;96490.09;4995143;28;101953;-65
2022/12/25 09:57:27;;;;;;;4.57;4.17;;;;;;;10.42;100.00;96483.53;4992404;28;101904;-65
2022/12/25 09:59:56;;;;;;;5.33;4.17;;;;;;;10.43;100.00;96477.16;4991899;28;101840;-65
2022/12/25 10:02:36;;;;;;;4.20;3.73;;;;;;;10.58;100.00;96466.72;4991686;28;104826;-65
2022/12/25 10:05:24;;;;;;;4.17;3.77;;;;;;;10.80;100.00;96470.19;4991015;28;104079;-65
2022/12/25 10:07:58;;;;;;;3.90;3.50;;;;;;;10.82;100.00;96478.69;4975112;28;101905;-65
2022/12/25 10:10:42;;;;;;;3.57;3.27;;;;;;;10.91;100.00;96467.34;4991363;28;105677;-65
2022/12/25 10:13:25;;;;;;;3.73;3.43;;;;;;;11.04;100.00;96468.81;4991082;28;105131;-65
2022/12/25 10:15:59;;;;;;;2.60;2.40;;;;;;;11.14;100.00;96450.28;4992923;28;101804;-65
2022/12/25 10:18:38;;;;;;;2.17;2.07;;;;;;;11.32;100.00;96440.09;4994312;28;105590;-65
2022/12/25 10:21:12;;;;;;;2.63;2.27;;;;;;;11.58;100.00;96443.75;4991425;28;101866;-65
2022/12/25 10:23:43;;;;;;;3.23;2.73;;;;;;;11.57;100.00;96445.63;4991110;28;105653;-65
2022/12/25 10:26:15;;;;;;;2.50;2.30;;;;;;;11.61;100.00;96432.63;4991108;28;105307;-65
2022/12/25 10:28:45;;;;;;;3.07;2.57;;;;;;;11.75;100.00;96433.78;4990795;28;101821;-65
2022/12/25 10:31:19;;;;;;;2.70;2.50;;;;;;;11.58;100.00;96430.44;4991308;28;104968;-65
2022/12/25 10:33:49;;;;;;;3.10;2.80;;;;;;;11.48;100.00;96436.50;4990700;28;103703;-65
2022/12/25 10:36:20;;;;;;;2.93;2.70;;;;;;;11.53;100.00;96447.19;4990888;28;102340;-65
2022/12/25 10:38:47;;;;;;;3.37;2.97;;;;;;;11.62;100.00;96450.22;4992796;28;102392;-65
2022/12/25 10:41:31;;;;;;;3.07;2.87;;;;;;;11.73;100.00;96450.00;4994014;28;105375;-65
2022/12/25 10:43:57;;;;;;;2.07;1.87;;;;;;;11.78;100.00;96438.63;4992568;28;101749;-65
2022/12/25 10:46:28;;;;;;;1.80;1.70;;;;;;;11.76;100.00;96438.03;4989867;28;104356;-65
2022/12/25 10:48:58;;;;;;;2.00;1.67;;;;;;;11.78;100.00;96438.63;4992765;28;101868;-65
2022/12/25 10:51:33;;;;;;;1.20;1.20;;;;;;;11.69;100.00;96434.81;4992177;28;103702;-65
2022/12/25 10:54:02;;;;;;;1.50;1.40;;;;;;;12.17;100.00;96431.91;4989789;28;105231;-65
2022/12/25 10:56:29;;;;;;;1.53;1.43;;;;;;;12.48;100.00;96428.34;4991767;28;101768;-65
2022/12/25 10:59:06;;;;;;;1.60;1.50;;;;;;;12.04;100.00;96419.84;4992226;28;102864;-65
2022/12/25 11:01:32;;;;;;;1.53;1.43;;;;;;;12.02;100.00;96410.50;4990205;28;105430;-65
2022/12/25 11:04:00;;;;;;;1.73;1.63;;;;;;;12.28;100.00;96409.56;4994236;28;101978;-65
2022/12/25 11:06:28;;;;;;;1.83;1.73;;;;;;;12.59;100.00;96395.31;4991480;28;103057;-65
2022/12/25 11:08:59;;;;;;;1.63;1.60;;;;;;;12.69;100.00;96390.78;4990728;28;102028;-65
2022/12/25 11:11:27;;;;;;;1.90;1.80;;;;;;;12.80;100.00;96397.75;4990806;28;105171;-65
2022/12/25 11:13:58;;;;;;;2.27;2.03;;;;;;;12.93;100.00;96396.44;4991253;28;102718;-65
2022/12/25 11:16:30;;;;;;;1.93;1.83;;;;;;;13.15;100.00;96397.03;4990294;28;102221;-65
2022/12/25 11:18:58;;;;;;;1.60;1.50;;;;;;;13.07;100.00;96387.69;4990450;28;104207;-65
2022/12/25 11:21:28;;;;;;;2.20;2.00;;;;;;;12.72;100.00;96384.13;4989850;28;105412;-65
2022/12/25 11:24:01;;;;;;;1.90;1.80;;;;;;;12.83;100.00;96377.72;4993872;28;101877;-65
2022/12/25 11:26:29;;;;;;;2.83;2.17;;;;;;;12.59;100.00;96368.63;4989926;28;105531;-65
2022/12/25 11:28:58;;;;;;;2.43;2.23;;;;;;;12.90;100.00;96376.41;4989541;28;102126;-65
2022/12/25 11:31:32;;;;;;;2.13;1.97;;;;;;;13.01;100.00;96363.91;4990339;28;105624;-65
2022/12/25 11:34:05;;;;;;;1.93;1.83;;;;;;;13.01;100.00;96364.72;4989498;28;105891;-65
2022/12/25 11:36:43;;;;;;;1.90;1.80;;;;;;;12.96;100.00;96362.03;4990375;28;102049;-65
2022/12/25 11:39:21;;;;;;;2.03;1.83;;;;;;;12.94;100.00;96360.66;4991807;28;102828;-65
2022/12/25 11:41:51;;;;;;;2.77;2.57;;;;;;;12.90;100.00;96349.72;4989683;28;105484;-65
2022/12/25 11:44:28;;;;;;;2.43;2.23;;;;;;;12.57;100.00;96341.38;4991650;28;101854;-65
2022/12/25 11:46:56;;;;;;;2.30;2.10;;;;;;;12.39;100.00;96348.03;4992897;28;105181;-65
2022/12/25 11:49:24;;;;;;;1.97;1.80;;;;;;;12.53;100.00;96346.44;4991637;28;101837;-65
2022/12/25 11:51:56;;;;;;;3.43;2.13;;;;;;;12.54;100.00;96347.25;4991368;28;102442;-65
2022/12/25 11:54:30;;;;;;;2.67;2.20;;;;;;;12.58;100.00;96342.97;4989399;28;104039;-65
2022/12/25 11:56:59;;;;;;;2.33;2.20;;;;;;;12.59;100.00;96347.28;4989862;28;103622;-65
2022/12/25 11:59:31;;;;;;;1.90;1.80;;;;;;;12.53;100.00;96345.66;4989989;28;105229;-65
2022/12/25 12:02:03;;;;;;;1.70;1.60;;;;;;;12.50;100.00;96349.66;4989286;28;104261;-65
2022/12/25 12:04:35;;;;;;;1.90;1.80;;;;;;;12.52;100.00;96342.19;4989887;28;102568;-65
2022/12/25 12:07:13;;;;;;;1.80;1.70;;;;;;;12.49;100.00;96344.59;4991181;28;102831;-65
2022/12/25 12:09:48;;;;;;;1.90;1.67;;;;;;;12.55;100.00;96349.69;4993039;28;103294;-65
2022/12/25 12:12:21;;;;;;;1.67;1.57;;;;;;;12.74;100.00;96345.44;4990920;28;102616;-65
2022/12/25 12:14:56;;;;;;;2.20;1.10;;;;;;;12.80;100.00;96343.59;4989017;28;105013;-65
2022/12/25 12:17:23;;;;;;;1.30;1.23;;;;;;;12.73;100.00;96332.34;4989590;28;101990;-65
2022/12/25 12:19:50;;;;;;;1.40;1.30;;;;;;;12.55;100.00;96324.84;4991063;28;102804;-65
2022/12/25 12:22:21;;;;;;;1.60;1.50;;;;;;;12.57;100.00;96322.72;4989116;28;105230;-65
2022/12/25 12:24:55;;;;;;;1.73;1.63;;;;;;;12.90;100.00;96317.69;4991165;28;101764;-65
2022/12/25 12:27:27;;;;;;;2.20;1.30;;;;;;;13.00;100.00;96319.59;4988811;28;105567;-65
2022/12/25 12:29:57;;;;;;;1.60;1.50;;;;;;;13.19;100.00;96318.00;4988947;28;105217;-65
2022/12/25 12:32:34;;;;;;;1.87;1.70;;;;;;;13.46;100.00;96313.16;4992676;28;102117;-65
2022/12/25 12:35:10;;;;;;;1.40;1.30;;;;;;;13.73;100.00;96309.09;4988768;28;105288;-65
2022/12/25 12:37:39;;;;;;;1.37;1.27;;;;;;;13.92;100.00;96307.44;4989344;28;101883;-65
2022/12/25 12:40:24;;;;;;;1.37;1.30;;;;;;;13.99;100.00;96312.47;4989539;28;105462;-65
2022/12/25 12:42:51;;;;;;;1.10;1.10;;;;;;;14.13;100.00;96305.47;4988774;28;105344;-65
2022/12/25 12:45:21;;;;;;;1.50;1.40;;;;;;;14.64;100.00;96301.47;4990633;28;101734;-65
2022/12/25 12:47:49;;;;;;;1.57;1.47;;;;;;;14.91;100.00;96299.13;4989994;28;102878;-65
2022/12/25 12:50:35;;;;;;;1.47;1.40;;;;;;;14.82;100.00;96300.84;4995418;28;102946;-65
2022/12/25 12:53:18;;;;;;;1.73;1.63;;;;;;;14.31;100.00;96300.34;5007400;28;103290;-65
2022/12/25 12:55:46;;;;;;;2.53;1.70;;;;;;;14.32;100.00;96293.09;4992516;28;102965;-65
2022/12/25 12:58:29;;;;;;;1.70;1.53;;;;;;;14.05;100.00;96281.97;4989893;28;101853;-65
2022/12/25 13:01:06;;;;;;;1.90;1.70;;;;;;;14.00;100.00;96277.44;4990390;28;102094;-65
2022/12/25 13:03:44;;;;;;;1.40;1.30;;;;;;;14.04;100.00;96280.38;4989798;28;102859;-65
2022/12/25 13:06:14;;;;;;;1.50;1.40;;;;;;;13.56;100.00;96279.22;4990227;28;102049;-65
2022/12/25 13:08:57;;;;;;;1.80;1.70;;;;;;;13.83;100.00;96274.31;4988729;28;103879;-65
2022/12/25 13:11:28;;;;;;;1.90;1.80;;;;;;;14.24;100.00;96283.78;4989841;28;102604;-65
2022/12/25 13:13:58;;;;;;;1.80;1.70;;;;;;;13.89;100.00;96275.88;4990296;28;102439;-65
2022/12/25 13:16:29;;;;;;;1.57;1.47;;;;;;;14.08;100.00;96273.41;4989962;28;102351;-65